Menoken, ND (58558)

1:17 PM CST on December 10, 2016 (GMT -0600)
Apple Meadows | | Change Station

Elev 1732 ft 46.81 °N, 100.67 °W | Updated 25 seconds ago

Snow
Snow
-4.6 °F
Feels Like -5 °F
N
2.0
Wind Variable Wind from NE

Today
High -- | Low -- °F
--% Chance of Precip.
Yesterday
High -- | Low -- °F
Precip. -- in
Pressure 30.38 in
Visibility 8.0 miles
Clouds Mostly Cloudy 6000 ft
Overcast 8000 ft
Windchill -5 °F
Dew Point -8 °F
Humidity 83%
Rainfall 0.00 in
Snow Depth Not available.
8:16 AM 4:53 PM
Waxing Gibbous, 85% visible
METAR KBIS 101852Z 08006KT 8SM -SN BKN060 OVC080 M22/M23 A3021 RMK AO2 SNB35 SLP287 P0000 T12221233
Pressure 30.38 in
Visibility 8.0 miles
Clouds Mostly Cloudy 6000 ft
Overcast 8000 ft
Windchill -5 °F
Dew Point -8 °F
Humidity 83%
Rainfall 0.00 in
Snow Depth Not available.
8:16 AM 4:53 PM
Waxing Gibbous, 85% visible
METAR KBIS 101852Z 08006KT 8SM -SN BKN060 OVC080 M22/M23 A3021 RMK AO2 SNB35 SLP287 P0000 T12221233

10-Day Weather Forecast

Almanac

Astronomy

Dec. 10, 2016 Rise Set
Actual Time
Civil Twilight
Nautical Twilight
Astronomical Twilight
Moon
Length of Visible Light
Length of Day
Tomorrow will be .
, % of the Moon is Illuminated

Today's Extremes

State Highs State Lows

Community

WunderPhotos

Upload Photos

1,956,627 photos uploaded!

WunderBlog® & News

Nearby

Air Quality

  Air Quality AQ Index Pollutant
Not available.

Snow Depth

Station Depth Elevation

Earthquake Activity

City Distance Mag. Time & Date
Minimum magnitude displayed is 2.5.

Coastal Water Temperatures

Place Temperature

Stations

Nearby Weather Stations

Station Location Temp. Windchill Dew Point Humidity Wind Precip. Elev Updated Type
                   

Watches & Warnings

There are currently no watches in effect.